createdAt,value
2022-09-06T00:02:22.615Z,2.87
2022-09-06T00:04:51.168Z,2.57
2022-09-06T00:07:19.361Z,2.73
2022-09-06T00:09:47.519Z,2.60
2022-09-06T00:12:15.653Z,2.63
2022-09-06T00:14:45.295Z,2.40
2022-09-06T00:17:13.719Z,2.90
2022-09-06T00:19:41.948Z,3.00
2022-09-06T00:22:10.118Z,3.00
2022-09-06T00:24:38.562Z,3.20
2022-09-06T00:27:07.467Z,2.67
2022-09-06T00:29:36.196Z,2.40
2022-09-06T00:32:06.036Z,2.77
2022-09-06T00:34:34.177Z,2.30
2022-09-06T00:37:02.451Z,2.73
2022-09-06T00:39:30.748Z,2.70
2022-09-06T00:41:59.044Z,2.57
2022-09-06T00:44:27.313Z,3.03
2022-09-06T00:46:56.332Z,2.57
2022-09-06T00:49:29.779Z,3.13
2022-09-06T00:52:02.645Z,3.20
2022-09-06T00:54:31.822Z,2.87
2022-09-06T00:57:00.985Z,2.57
2022-09-06T00:59:32.433Z,2.60
2022-09-06T01:02:00.749Z,2.47
2022-09-06T01:04:30.932Z,2.30
2022-09-06T01:07:07.085Z,2.50
2022-09-06T01:09:51.151Z,2.80
2022-09-06T01:12:36.521Z,2.90
2022-09-06T01:15:16.287Z,2.47
2022-09-06T01:17:59.745Z,2.70
2022-09-06T01:20:59.858Z,2.47
2022-09-06T01:24:01.165Z,3.10
2022-09-06T01:27:04.671Z,2.97
2022-09-06T01:29:40.718Z,2.63
2022-09-06T01:32:18.209Z,3.07
2022-09-06T01:34:52.038Z,2.50
2022-09-06T01:37:21.877Z,2.70
2022-09-06T01:39:50.096Z,2.73
2022-09-06T01:42:20.774Z,3.00
2022-09-06T01:44:54.603Z,2.60
2022-09-06T01:47:36.682Z,3.00
2022-09-06T01:50:26.454Z,2.63
2022-09-06T01:53:03.823Z,2.80
2022-09-06T01:55:36.494Z,2.67
2022-09-06T01:58:19.537Z,2.20
2022-09-06T02:00:56.204Z,2.50
2022-09-06T02:03:30.783Z,2.70
2022-09-06T02:06:07.317Z,2.57
2022-09-06T02:08:40.342Z,2.50
2022-09-06T02:11:10.232Z,2.57
2022-09-06T02:13:41.473Z,2.70
2022-09-06T02:16:14.894Z,2.53
2022-09-06T02:18:48.813Z,2.60
2022-09-06T02:21:20.429Z,2.63
2022-09-06T02:23:50.569Z,2.40
2022-09-06T02:26:21.730Z,2.63
2022-09-06T02:28:50.288Z,3.10
2022-09-06T02:31:23.322Z,2.57
2022-09-06T02:33:53.044Z,2.70
2022-09-06T02:36:21.422Z,2.60
2022-09-06T02:38:49.669Z,2.60
2022-09-06T02:41:22.586Z,2.37
2022-09-06T02:43:50.870Z,2.13
2022-09-06T02:46:20.565Z,2.50
2022-09-06T02:48:48.744Z,2.57
2022-09-06T02:51:16.938Z,2.43
2022-09-06T02:53:45.175Z,2.53
2022-09-06T02:56:13.929Z,3.13
2022-09-06T02:58:42.137Z,2.40
2022-09-06T03:01:10.405Z,2.60
2022-09-06T03:03:39.999Z,2.27
2022-09-06T03:06:08.494Z,2.53
2022-09-06T03:08:36.675Z,2.40
2022-09-06T03:11:07.276Z,2.63
2022-09-06T03:13:35.425Z,2.90
2022-09-06T03:16:06.688Z,2.57
2022-09-06T03:18:34.882Z,2.53
2022-09-06T03:21:07.669Z,2.10
2022-09-06T03:23:35.915Z,2.73
2022-09-06T03:26:06.742Z,2.80
2022-09-06T03:28:35.112Z,2.57
2022-09-06T03:31:05.445Z,2.17
2022-09-06T03:33:33.635Z,2.57
2022-09-06T03:36:06.890Z,2.30
2022-09-06T03:38:35.099Z,2.00
2022-09-06T03:41:05.565Z,2.10
2022-09-06T03:43:33.937Z,2.63
2022-09-06T03:46:02.570Z,2.70
2022-09-06T03:48:32.727Z,2.30
2022-09-06T03:51:01.023Z,2.50
2022-09-06T03:53:31.075Z,2.50
2022-09-06T03:55:59.563Z,2.37
2022-09-06T03:58:31.344Z,2.40
2022-09-06T04:01:08.172Z,2.50
2022-09-06T04:03:37.498Z,2.50
2022-09-06T04:06:08.713Z,2.60
2022-09-06T04:08:38.742Z,2.40
2022-09-06T04:11:09.953Z,2.47
2022-09-06T04:13:38.248Z,2.67
2022-09-06T04:16:09.276Z,2.17
2022-09-06T04:18:37.621Z,2.20
2022-09-06T04:21:08.610Z,2.90
2022-09-06T04:23:40.041Z,2.63
2022-09-06T04:26:08.557Z,2.23
2022-09-06T04:28:36.856Z,2.40
2022-09-06T04:31:07.242Z,2.33
2022-09-06T04:33:37.196Z,2.50
2022-09-06T04:36:10.551Z,2.40
2022-09-06T04:38:42.002Z,2.20
2022-09-06T04:41:11.616Z,2.17
2022-09-06T04:43:40.075Z,2.50
2022-09-06T04:46:11.439Z,2.47
2022-09-06T04:48:39.656Z,2.37
2022-09-06T04:51:07.979Z,2.30
2022-09-06T04:53:36.167Z,2.53
2022-09-06T04:56:08.220Z,2.30
2022-09-06T04:58:36.405Z,2.00
2022-09-06T05:01:07.560Z,2.20
2022-09-06T05:03:35.771Z,2.50
2022-09-06T05:06:11.896Z,2.17
2022-09-06T05:08:40.932Z,2.40
2022-09-06T05:11:10.996Z,2.57
2022-09-06T05:13:39.849Z,2.60
2022-09-06T05:16:09.686Z,2.30
2022-09-06T05:18:37.925Z,3.80
2022-09-06T05:21:09.393Z,3.20
2022-09-06T05:23:37.644Z,3.50
2022-09-06T05:26:10.415Z,4.10
2022-09-06T05:28:38.564Z,4.90
2022-09-06T05:31:11.916Z,4.43
2022-09-06T05:33:40.485Z,3.40
2022-09-06T05:36:09.388Z,3.80
2022-09-06T05:38:37.613Z,4.37
2022-09-06T05:41:09.895Z,4.57
2022-09-06T05:43:38.256Z,4.50
2022-09-06T05:46:09.813Z,4.33
2022-09-06T05:48:38.163Z,4.60
2022-09-06T05:51:12.493Z,4.60
2022-09-06T05:53:42.504Z,4.17
2022-09-06T05:56:12.996Z,4.00
2022-09-06T05:58:41.462Z,3.93
2022-09-06T06:01:16.244Z,4.60
2022-09-06T06:03:50.719Z,5.50
2022-09-06T06:06:19.255Z,5.93
2022-09-06T06:08:47.600Z,5.30
2022-09-06T06:11:17.616Z,4.43
2022-09-06T06:13:46.079Z,4.00
2022-09-06T06:16:16.126Z,5.13
2022-09-06T06:18:47.746Z,4.50
2022-09-06T06:21:20.407Z,4.33
2022-09-06T06:23:51.754Z,3.80
2022-09-06T06:26:22.572Z,4.17
2022-09-06T06:28:51.599Z,4.07
2022-09-06T06:31:22.089Z,3.73
2022-09-06T06:33:50.653Z,4.27
2022-09-06T06:36:23.561Z,4.70
2022-09-06T06:38:54.053Z,3.90
2022-09-06T06:41:25.664Z,3.87
2022-09-06T06:43:54.208Z,4.30
2022-09-06T06:46:23.902Z,3.70
2022-09-06T06:48:55.260Z,4.83
2022-09-06T06:51:25.552Z,4.30
2022-09-06T06:53:54.107Z,3.63
2022-09-06T06:56:25.364Z,3.43
2022-09-06T06:58:56.272Z,4.33
2022-09-06T07:01:26.323Z,3.73
2022-09-06T07:03:55.492Z,3.80
2022-09-06T07:09:13.179Z,3.60
2022-09-06T07:11:42.677Z,3.77
2022-09-06T07:14:10.887Z,3.77
2022-09-06T07:16:39.141Z,4.30
2022-09-06T07:19:07.693Z,3.43
2022-09-06T07:24:09.762Z,3.80
2022-09-06T07:26:40.222Z,3.73
2022-09-06T07:29:10.125Z,3.50
2022-09-06T07:34:28.142Z,5.53
2022-09-06T07:36:56.855Z,3.50
2022-09-06T07:39:25.254Z,4.10
2022-09-06T07:41:53.415Z,3.57
2022-09-06T07:44:22.974Z,3.60
2022-09-06T07:46:52.577Z,4.00
2022-09-06T07:49:21.052Z,3.87
2022-09-06T07:51:49.794Z,4.00
2022-09-06T07:54:33.332Z,3.30
2022-09-06T07:57:02.795Z,3.87
2022-09-06T07:59:32.676Z,3.87
2022-09-06T08:02:01.011Z,3.70
2022-09-06T08:04:29.509Z,3.57
2022-09-06T08:09:45.830Z,3.63
2022-09-06T08:12:13.987Z,3.33
2022-09-06T08:14:43.554Z,3.23
2022-09-06T08:17:11.840Z,3.60
2022-09-06T08:19:40.037Z,3.33
2022-09-06T08:22:08.257Z,3.63
2022-09-06T08:24:36.776Z,3.90
2022-09-06T08:27:07.714Z,3.83
2022-09-06T08:29:35.941Z,4.07
2022-09-06T08:32:05.561Z,3.67
2022-09-06T08:34:33.778Z,4.07
2022-09-06T08:37:02.072Z,3.70
2022-09-06T08:39:30.314Z,3.80
2022-09-06T08:42:03.032Z,3.47
2022-09-06T08:47:25.812Z,3.87
2022-09-06T08:49:57.232Z,3.50
2022-09-06T08:53:06.181Z,3.93
2022-09-06T08:55:38.219Z,5.00
2022-09-06T08:58:34.543Z,3.63
2022-09-06T09:01:06.656Z,4.07
2022-09-06T09:03:38.132Z,3.87
2022-09-06T09:06:10.415Z,4.20
2022-09-06T09:08:47.990Z,3.90
2022-09-06T09:11:19.553Z,4.03
2022-09-06T09:13:55.839Z,4.57
2022-09-06T09:16:25.066Z,3.90
2022-09-06T09:18:58.239Z,3.50
2022-09-06T09:21:30.710Z,4.30
2022-09-06T09:24:03.001Z,3.93
2022-09-06T09:26:38.669Z,3.87
2022-09-06T09:29:09.381Z,4.03
2022-09-06T09:31:40.216Z,3.20
2022-09-06T09:34:14.770Z,4.30
2022-09-06T09:39:36.824Z,3.47
2022-09-06T09:42:05.355Z,4.17
2022-09-06T09:44:34.191Z,4.30
2022-09-06T09:47:11.196Z,3.53
2022-09-06T09:49:40.769Z,3.80
2022-09-06T09:52:13.063Z,3.80
2022-09-06T09:54:44.279Z,3.77
2022-09-06T09:57:18.405Z,3.60
2022-09-06T09:59:49.312Z,3.80
2022-09-06T10:02:22.355Z,3.40
2022-09-06T10:04:54.548Z,3.10
2022-09-06T10:07:24.851Z,4.03
2022-09-06T10:10:00.735Z,3.40
2022-09-06T10:12:31.860Z,3.70
2022-09-06T10:15:02.525Z,3.37
2022-09-06T10:17:36.810Z,3.47
2022-09-06T10:20:10.003Z,3.33
2022-09-06T10:22:47.277Z,3.50
2022-09-06T10:25:51.776Z,3.27
2022-09-06T10:28:30.301Z,3.23
2022-09-06T10:31:40.104Z,3.27
2022-09-06T10:34:43.640Z,3.20
2022-09-06T10:37:24.745Z,3.00
2022-09-06T10:39:58.964Z,3.37
2022-09-06T10:42:38.456Z,3.37
2022-09-06T10:45:25.090Z,2.87
2022-09-06T10:47:58.794Z,3.00
2022-09-06T10:50:35.765Z,3.20
2022-09-06T10:53:11.852Z,3.30
2022-09-06T10:55:45.242Z,3.07
2022-09-06T10:58:23.463Z,2.80
2022-09-06T11:00:54.101Z,2.93
2022-09-06T11:06:18.362Z,2.70
2022-09-06T11:08:58.145Z,3.43
2022-09-06T11:11:35.781Z,2.30
2022-09-06T11:14:10.215Z,3.10
2022-09-06T11:16:46.396Z,3.67
2022-09-06T11:19:19.125Z,2.87
2022-09-06T11:22:22.705Z,2.90
2022-09-06T11:25:21.438Z,2.77
2022-09-06T11:27:57.969Z,2.73
2022-09-06T11:30:28.193Z,2.70
2022-09-06T11:33:10.511Z,2.43
2022-09-06T11:35:40.983Z,2.40
2022-09-06T11:38:21.902Z,2.40
2022-09-06T11:40:58.919Z,2.87
2022-09-06T11:43:48.689Z,2.97
2022-09-06T11:46:54.311Z,2.90
2022-09-06T11:49:41.357Z,3.50
2022-09-06T11:52:59.333Z,2.97
2022-09-06T11:55:36.050Z,3.60
2022-09-06T11:58:10.153Z,3.17
2022-09-06T12:00:38.296Z,2.93
2022-09-06T12:06:18.003Z,3.63
2022-09-06T12:08:46.646Z,3.27
2022-09-06T12:11:30.566Z,3.50
2022-09-06T12:14:03.472Z,3.60
2022-09-06T12:17:31.187Z,3.30
2022-09-06T12:20:06.823Z,3.30
2022-09-06T12:23:05.029Z,2.90
2022-09-06T12:25:58.430Z,3.27
2022-09-06T12:28:43.650Z,3.60
2022-09-06T12:31:43.890Z,3.40
2022-09-06T12:34:16.013Z,3.53
2022-09-06T12:36:57.632Z,3.47
2022-09-06T12:39:26.046Z,3.20
2022-09-06T12:41:57.600Z,3.20
2022-09-06T12:44:32.595Z,3.20
2022-09-06T12:47:08.142Z,3.27
2022-09-06T12:49:36.279Z,3.43
2022-09-06T12:52:09.628Z,4.20
2022-09-06T12:54:48.182Z,3.10
2022-09-06T12:57:20.820Z,3.30
2022-09-06T12:59:50.820Z,3.50
2022-09-06T13:02:24.958Z,2.97
2022-09-06T13:04:57.168Z,3.40
2022-09-06T13:07:27.089Z,3.90
2022-09-06T13:09:58.496Z,3.37
2022-09-06T13:12:29.588Z,3.60
2022-09-06T13:15:00.367Z,3.40
2022-09-06T13:17:31.547Z,2.77
2022-09-06T13:20:11.201Z,3.03
2022-09-06T13:22:42.566Z,3.13
2022-09-06T13:25:24.770Z,3.20
2022-09-06T13:27:57.649Z,3.20
2022-09-06T13:30:38.546Z,3.03
2022-09-06T13:33:09.894Z,2.87
2022-09-06T13:35:39.464Z,3.13
2022-09-06T13:38:32.486Z,2.73
2022-09-06T13:41:16.943Z,3.73
2022-09-06T13:43:48.064Z,3.27
2022-09-06T13:46:16.301Z,3.60
2022-09-06T13:48:45.944Z,3.43
2022-09-06T13:51:14.221Z,3.43
2022-09-06T13:53:42.397Z,3.37
2022-09-06T13:56:12.007Z,3.30
2022-09-06T13:58:40.174Z,3.00
2022-09-06T14:01:09.932Z,3.40
2022-09-06T14:03:41.757Z,3.67
2022-09-06T14:06:11.987Z,3.53
2022-09-06T14:11:29.104Z,4.10
2022-09-06T14:13:57.323Z,4.70
2022-09-06T14:16:25.885Z,4.57
2022-09-06T14:18:54.168Z,4.70
2022-09-06T14:21:23.794Z,4.97
2022-09-06T14:23:52.832Z,4.33
2022-09-06T14:26:23.112Z,4.10
2022-09-06T14:28:51.971Z,4.33
2022-09-06T14:31:21.578Z,4.47
2022-09-06T14:33:50.067Z,4.50
2022-09-06T14:36:20.544Z,4.93
2022-09-06T14:38:50.463Z,3.73
2022-09-06T14:41:19.914Z,4.10
2022-09-06T14:43:51.595Z,3.90
2022-09-06T14:46:21.993Z,4.10
2022-09-06T14:48:56.915Z,5.30
2022-09-06T14:51:25.665Z,3.80
2022-09-06T14:53:56.996Z,4.60
2022-09-06T14:56:26.187Z,4.57
2022-09-06T14:58:57.407Z,4.00
2022-09-06T15:01:31.041Z,4.03
2022-09-06T15:04:03.729Z,4.40
2022-09-06T15:06:36.500Z,4.23
2022-09-06T15:09:07.194Z,3.90
2022-09-06T15:11:36.870Z,4.60
2022-09-06T15:14:06.623Z,3.97
2022-09-06T15:16:35.956Z,4.50
2022-09-06T15:19:04.278Z,4.67
2022-09-06T15:21:33.485Z,4.33
2022-09-06T15:24:02.549Z,4.93
2022-09-06T15:26:33.054Z,3.80
2022-09-06T15:29:01.985Z,4.93
2022-09-06T15:31:30.547Z,3.83
2022-09-06T15:33:59.231Z,3.80
2022-09-06T15:36:27.503Z,4.97
2022-09-06T15:38:57.464Z,4.20
2022-09-06T15:41:27.345Z,4.90
2022-09-06T15:43:58.432Z,4.07
2022-09-06T15:46:44.412Z,4.17
2022-09-06T15:49:14.733Z,4.40
2022-09-06T15:51:43.412Z,3.80
2022-09-06T15:54:13.062Z,4.20
2022-09-06T15:56:41.657Z,4.00
2022-09-06T15:59:12.697Z,4.33
2022-09-06T16:01:41.544Z,3.57
2022-09-06T16:04:09.926Z,5.30
2022-09-06T16:06:42.058Z,4.00
2022-09-06T16:09:14.104Z,4.30
2022-09-06T16:11:43.254Z,4.67
2022-09-06T16:14:15.423Z,4.07
2022-09-06T16:16:44.791Z,4.47
2022-09-06T16:19:14.090Z,4.63
2022-09-06T16:21:43.747Z,3.43
2022-09-06T16:24:14.198Z,4.40
2022-09-06T16:26:44.426Z,4.50
2022-09-06T16:29:16.491Z,3.90
2022-09-06T16:31:44.936Z,4.30
2022-09-06T16:34:14.089Z,4.73
2022-09-06T16:36:42.820Z,5.10
2022-09-06T16:39:11.218Z,4.87
2022-09-06T16:41:41.884Z,4.80
2022-09-06T16:44:14.525Z,4.50
2022-09-06T16:46:44.901Z,4.57
2022-09-06T16:49:13.575Z,4.67
2022-09-06T16:51:41.891Z,5.30
2022-09-06T16:54:10.141Z,5.33
2022-09-06T16:56:39.487Z,5.00
2022-09-06T16:59:10.213Z,5.20
2022-09-06T17:01:41.930Z,5.10
2022-09-06T17:04:12.767Z,5.13
2022-09-06T17:06:44.514Z,5.47
2022-09-06T17:09:14.352Z,5.73
2022-09-06T17:11:42.761Z,4.10
2022-09-06T17:14:11.146Z,5.10
2022-09-06T17:16:56.655Z,4.60
2022-09-06T17:19:26.575Z,5.50
2022-09-06T17:21:55.262Z,4.90
2022-09-06T17:24:23.542Z,4.77
2022-09-06T17:26:51.777Z,5.20
2022-09-06T17:29:20.506Z,5.70
2022-09-06T17:31:49.533Z,4.80
2022-09-06T17:34:17.820Z,5.97
2022-09-06T17:36:47.658Z,5.00
2022-09-06T17:39:18.903Z,5.57
2022-09-06T17:41:49.601Z,5.53
2022-09-06T17:44:19.673Z,5.40
2022-09-06T17:47:09.012Z,4.57
2022-09-06T17:49:37.186Z,5.40
2022-09-06T17:52:06.823Z,5.20
2022-09-06T17:54:35.134Z,5.47
2022-09-06T17:57:03.376Z,5.40
2022-09-06T17:59:35.497Z,6.23
2022-09-06T18:02:05.064Z,5.63
2022-09-06T18:04:33.448Z,5.00
2022-09-06T18:07:02.060Z,5.43
2022-09-06T18:09:31.796Z,5.60
2022-09-06T18:12:00.037Z,6.03
2022-09-06T18:14:29.165Z,6.10
2022-09-06T18:16:57.656Z,7.00
2022-09-06T18:19:26.221Z,7.53
2022-09-06T18:21:55.073Z,6.60
2022-09-06T18:24:23.932Z,5.87
2022-09-06T18:26:53.588Z,5.77
2022-09-06T18:29:21.947Z,6.27
2022-09-06T18:31:53.557Z,6.40
2022-09-06T18:34:22.165Z,6.20
2022-09-06T18:36:50.494Z,5.10
2022-09-06T18:39:19.100Z,6.20
2022-09-06T18:42:03.864Z,5.50
2022-09-06T18:44:34.793Z,6.40
2022-09-06T18:47:05.646Z,6.23
2022-09-06T18:49:34.778Z,6.57
2022-09-06T18:52:03.872Z,5.93
2022-09-06T18:54:32.609Z,6.27
2022-09-06T18:57:01.059Z,5.93
2022-09-06T18:59:29.342Z,6.00
2022-09-06T19:01:59.279Z,6.27
2022-09-06T19:04:27.650Z,5.33
2022-09-06T19:06:55.881Z,5.13
2022-09-06T19:09:24.273Z,7.40
2022-09-06T19:11:53.227Z,7.23
2022-09-06T19:14:21.967Z,6.60
2022-09-06T19:16:51.755Z,7.33
2022-09-06T19:19:23.104Z,6.77
2022-09-06T19:21:51.667Z,5.80
2022-09-06T19:24:22.578Z,6.83
2022-09-06T19:26:51.522Z,6.83
2022-09-06T19:29:21.936Z,6.60
2022-09-06T19:31:50.438Z,6.40
2022-09-06T19:34:18.807Z,5.70
2022-09-06T19:36:50.015Z,5.93
2022-09-06T19:39:18.592Z,5.70
2022-09-06T19:41:47.702Z,6.53
2022-09-06T19:44:17.174Z,6.53
2022-09-06T19:46:47.179Z,6.70
2022-09-06T19:49:17.069Z,6.60
2022-09-06T19:51:46.602Z,5.90
2022-09-06T19:54:16.878Z,6.90
2022-09-06T19:56:45.270Z,5.90
2022-09-06T19:59:14.993Z,7.10
2022-09-06T20:01:44.703Z,6.37
2022-09-06T20:04:14.738Z,7.87
2022-09-06T20:06:43.206Z,6.13
2022-09-06T20:09:12.210Z,6.70
2022-09-06T20:11:42.981Z,6.47
2022-09-06T20:14:13.109Z,6.50
2022-09-06T20:16:42.589Z,7.10
2022-09-06T20:19:13.015Z,7.33
2022-09-06T20:21:41.703Z,6.80
2022-09-06T20:24:10.390Z,7.20
2022-09-06T20:26:38.803Z,6.50
2022-09-06T20:29:09.037Z,7.67
2022-09-06T20:31:38.452Z,8.00
2022-09-06T20:34:07.963Z,8.20
2022-09-06T20:36:36.614Z,8.27
2022-09-06T20:39:05.244Z,7.23
2022-09-06T20:41:33.945Z,6.60
2022-09-06T20:44:02.530Z,7.67
2022-09-06T20:46:33.969Z,8.20
2022-09-06T20:49:04.737Z,7.43
2022-09-06T20:51:35.021Z,8.27
2022-09-06T20:54:05.313Z,7.40
2022-09-06T20:56:35.947Z,8.43
2022-09-06T20:59:06.086Z,7.50
2022-09-06T21:01:37.446Z,7.83
2022-09-06T21:04:08.250Z,7.93
2022-09-06T21:06:37.998Z,7.03
2022-09-06T21:09:08.614Z,7.40
2022-09-06T21:11:37.351Z,6.97
2022-09-06T21:14:06.529Z,8.20
2022-09-06T21:16:36.827Z,7.80
2022-09-06T21:19:08.752Z,8.30
2022-09-06T21:21:38.025Z,7.50
2022-09-06T21:24:07.969Z,6.40
2022-09-06T21:26:36.426Z,8.13
2022-09-06T21:29:05.407Z,9.40
2022-09-06T21:31:37.015Z,6.43
2022-09-06T21:34:07.176Z,7.50
2022-09-06T21:36:38.490Z,8.03
2022-09-06T21:39:10.286Z,7.33
2022-09-06T21:41:39.959Z,6.03
2022-09-06T21:44:09.104Z,6.90
2022-09-06T21:46:40.106Z,8.40
2022-09-06T21:49:10.215Z,8.60
2022-09-06T21:51:39.733Z,7.10
2022-09-06T21:54:09.487Z,6.00
2022-09-06T21:56:39.488Z,7.23
2022-09-06T21:59:08.438Z,7.37
2022-09-06T22:01:39.498Z,8.43
2022-09-06T22:04:08.585Z,8.67
2022-09-06T22:06:37.769Z,7.40
2022-09-06T22:09:10.694Z,7.03
2022-09-06T22:11:40.447Z,8.83
2022-09-06T22:14:12.951Z,7.80
2022-09-06T22:16:43.168Z,7.97
2022-09-06T22:19:12.613Z,9.27
2022-09-06T22:21:41.756Z,8.20
2022-09-06T22:24:11.804Z,9.20
2022-09-06T22:26:41.832Z,8.40
2022-09-06T22:29:12.189Z,8.30
2022-09-06T22:31:42.445Z,9.67
2022-09-06T22:34:11.532Z,8.53
2022-09-06T22:36:40.158Z,8.57
2022-09-06T22:39:09.518Z,8.70
2022-09-06T22:41:37.754Z,10.80
2022-09-06T22:44:06.970Z,10.10
2022-09-06T22:46:35.311Z,10.47
2022-09-06T22:49:05.438Z,9.47
2022-09-06T22:51:34.041Z,10.30
2022-09-06T22:54:02.520Z,9.93
2022-09-06T22:56:30.790Z,10.10
2022-09-06T22:58:59.961Z,10.37
2022-09-06T23:01:28.258Z,10.13
2022-09-06T23:03:56.568Z,10.13
2022-09-06T23:06:27.184Z,11.10
2022-09-06T23:08:55.625Z,11.17
2022-09-06T23:11:23.950Z,11.13
2022-09-06T23:13:56.912Z,10.57
2022-09-06T23:16:26.238Z,10.70
2022-09-06T23:18:56.643Z,10.27
2022-09-06T23:21:27.498Z,11.10
2022-09-06T23:23:56.886Z,10.80
2022-09-06T23:26:28.999Z,11.80
2022-09-06T23:28:57.400Z,10.23
2022-09-06T23:31:27.337Z,9.80
2022-09-06T23:33:56.932Z,9.77
2022-09-06T23:36:27.137Z,12.10
2022-09-06T23:38:55.987Z,11.30
2022-09-06T23:41:25.409Z,10.90
2022-09-06T23:43:53.786Z,9.47
2022-09-06T23:46:22.078Z,9.60
2022-09-06T23:48:50.572Z,10.03
2022-09-06T23:51:18.951Z,9.27
2022-09-06T23:53:48.607Z,11.97
2022-09-06T23:56:16.882Z,10.60
2022-09-06T23:58:45.092Z,9.77
